createdAt,value
2019-03-06T00:00:00.777Z,20.73
2019-03-06T00:02:31.829Z,22.87
2019-03-06T00:05:02.303Z,24.60
2019-03-06T00:07:33.134Z,22.80
2019-03-06T00:10:03.846Z,23.67
2019-03-06T00:12:34.363Z,25.03
2019-03-06T00:15:05.966Z,20.67
2019-03-06T00:17:38.299Z,27.20
2019-03-06T00:20:08.979Z,29.90
2019-03-06T00:22:39.543Z,25.50
2019-03-06T00:25:10.017Z,28.57
2019-03-06T00:27:40.513Z,24.87
2019-03-06T00:30:11.301Z,22.93
2019-03-06T00:32:41.808Z,33.87
2019-03-06T00:35:25.414Z,33.47
2019-03-06T00:37:56.306Z,32.50
2019-03-06T00:40:41.213Z,25.53
2019-03-06T00:43:11.905Z,26.90
2019-03-06T00:45:42.493Z,25.90
2019-03-06T00:48:13.130Z,28.73
2019-03-06T00:50:43.552Z,27.23
2019-03-06T00:53:14.002Z,29.30
2019-03-06T00:55:44.759Z,25.90
2019-03-06T00:58:15.195Z,30.80
2019-03-06T01:00:45.698Z,29.43
2019-03-06T01:03:16.452Z,22.70
2019-03-06T01:05:46.918Z,26.33
2019-03-06T01:08:17.474Z,29.23
2019-03-06T01:10:48.846Z,27.27
2019-03-06T01:13:19.796Z,31.40
2019-03-06T01:15:50.284Z,31.57
2019-03-06T01:18:20.783Z,32.77
2019-03-06T01:20:51.390Z,26.17
2019-03-06T01:23:22.342Z,35.60
2019-03-06T01:25:52.922Z,28.70
2019-03-06T01:28:24.332Z,27.73
2019-03-06T01:30:55.014Z,28.00
2019-03-06T01:33:31.133Z,26.90
2019-03-06T01:36:23.342Z,30.70
2019-03-06T01:39:05.896Z,31.57
2019-03-06T01:41:48.534Z,31.07
2019-03-06T01:44:23.216Z,32.67
2019-03-06T01:46:53.783Z,31.67
2019-03-06T01:49:24.408Z,30.83
2019-03-06T01:51:55.430Z,30.57
2019-03-06T01:54:25.894Z,34.67
2019-03-06T01:56:56.532Z,36.27
2019-03-06T01:59:27.195Z,28.43
2019-03-06T02:01:57.916Z,35.27
2019-03-06T02:04:28.404Z,29.37
2019-03-06T02:06:58.860Z,30.67
2019-03-06T02:09:30.443Z,34.10
2019-03-06T02:12:01.368Z,33.30
2019-03-06T02:14:32.026Z,40.00
2019-03-06T02:17:02.878Z,30.23
2019-03-06T02:19:33.675Z,34.97
2019-03-06T02:22:04.162Z,30.27
2019-03-06T02:24:34.694Z,32.47
2019-03-06T02:27:05.350Z,41.90
2019-03-06T02:29:35.953Z,34.73
2019-03-06T02:32:06.468Z,34.60
2019-03-06T02:34:37.178Z,37.70
2019-03-06T02:37:08.154Z,33.20
2019-03-06T02:39:38.750Z,34.40
2019-03-06T02:42:09.280Z,36.10
2019-03-06T02:44:40.199Z,32.07
2019-03-06T02:47:11.404Z,30.17
2019-03-06T02:49:41.865Z,37.23
2019-03-06T02:52:12.361Z,38.13
2019-03-06T02:54:42.991Z,34.93
2019-03-06T02:57:14.054Z,39.80
2019-03-06T03:00:17.142Z,38.03
2019-03-06T03:02:56.937Z,36.30
2019-03-06T03:05:41.757Z,41.73
2019-03-06T03:08:12.320Z,39.50
2019-03-06T03:10:42.760Z,36.47
2019-03-06T03:13:13.325Z,36.37
2019-03-06T03:15:43.859Z,46.97
2019-03-06T03:18:14.513Z,19.13
2019-03-06T03:20:46.767Z,16.53
2019-03-06T03:23:18.985Z,10.03
2019-03-06T03:25:49.630Z,8.17
2019-03-06T03:28:20.073Z,6.63
2019-03-06T03:30:50.826Z,9.53
2019-03-06T03:33:21.365Z,7.23
2019-03-06T03:35:51.913Z,5.53
2019-03-06T03:38:22.363Z,6.80
2019-03-06T03:40:52.969Z,7.17
2019-03-06T03:43:24.018Z,7.47
2019-03-06T03:45:55.246Z,5.70
2019-03-06T03:48:26.073Z,7.83
2019-03-06T03:50:56.614Z,6.37
2019-03-06T03:53:27.191Z,14.37
2019-03-06T03:55:58.274Z,6.50
2019-03-06T03:58:29.195Z,4.53
2019-03-06T04:01:01.642Z,5.60
2019-03-06T04:03:32.508Z,4.50
2019-03-06T04:06:03.443Z,3.57
2019-03-06T04:08:34.372Z,4.37
2019-03-06T04:11:04.891Z,3.40
2019-03-06T04:13:35.933Z,4.07
2019-03-06T04:16:06.641Z,5.43
2019-03-06T04:18:37.635Z,4.07
2019-03-06T04:21:08.322Z,4.53
2019-03-06T04:23:38.939Z,6.47
2019-03-06T04:26:09.688Z,5.60
2019-03-06T04:28:40.464Z,3.70
2019-03-06T04:31:10.897Z,5.80
2019-03-06T04:33:41.345Z,7.53
2019-03-06T04:38:41.525Z,4.20
2019-03-06T04:41:11.926Z,6.57
2019-03-06T04:43:42.868Z,6.37
2019-03-06T04:46:13.684Z,5.10
2019-03-06T04:48:44.196Z,6.87
2019-03-06T04:51:14.742Z,8.40
2019-03-06T04:53:45.202Z,7.90
2019-03-06T04:56:15.952Z,5.30
2019-03-06T04:58:47.684Z,6.53
2019-03-06T05:01:18.385Z,7.37
2019-03-06T05:03:49.170Z,6.03
2019-03-06T05:06:20.147Z,7.70
2019-03-06T05:08:50.645Z,6.67
2019-03-06T05:11:21.130Z,7.40
2019-03-06T05:13:52.036Z,9.20
2019-03-06T05:16:30.316Z,6.00
2019-03-06T05:19:03.929Z,19.83
2019-03-06T05:21:34.818Z,7.83
2019-03-06T05:24:05.247Z,6.40
2019-03-06T05:26:35.650Z,8.27
2019-03-06T05:29:06.400Z,6.83
2019-03-06T05:31:36.955Z,6.20
2019-03-06T05:34:07.756Z,8.77
2019-03-06T05:37:10.532Z,15.93
2019-03-06T05:39:41.404Z,12.30
2019-03-06T05:42:11.825Z,12.23
2019-03-06T05:44:42.974Z,9.60
2019-03-06T05:47:13.563Z,11.07
2019-03-06T05:49:44.168Z,10.03
2019-03-06T05:52:14.556Z,10.53
2019-03-06T05:54:45.317Z,10.30
2019-03-06T05:57:15.701Z,12.60
2019-03-06T05:59:46.374Z,10.13
2019-03-06T06:02:17.198Z,11.90
2019-03-06T06:04:47.664Z,13.77
2019-03-06T06:07:18.110Z,9.00
2019-03-06T06:09:49.461Z,10.83
2019-03-06T06:12:20.165Z,16.73
2019-03-06T06:14:52.378Z,15.90
2019-03-06T06:17:23.564Z,16.83
2019-03-06T06:19:54.125Z,14.43
2019-03-06T06:22:32.240Z,16.97
2019-03-06T06:25:02.609Z,16.80
2019-03-06T06:27:34.448Z,14.90
2019-03-06T06:30:05.284Z,17.63
2019-03-06T06:32:35.676Z,16.27
2019-03-06T06:35:07.450Z,13.10
2019-03-06T06:37:37.953Z,15.43
2019-03-06T06:40:09.822Z,14.63
2019-03-06T06:42:40.244Z,14.07
2019-03-06T06:45:10.700Z,15.67
2019-03-06T06:48:16.794Z,16.63
2019-03-06T06:51:03.573Z,16.23
2019-03-06T06:53:57.058Z,17.60
2019-03-06T06:57:01.700Z,21.47
2019-03-06T07:00:08.672Z,15.53
2019-03-06T07:03:34.638Z,22.57
2019-03-06T07:06:26.684Z,16.70
2019-03-06T07:09:20.900Z,19.17
2019-03-06T07:12:00.850Z,20.50
2019-03-06T07:14:53.036Z,21.50
2019-03-06T07:17:29.868Z,21.40
2019-03-06T07:20:17.683Z,16.97
2019-03-06T07:23:11.096Z,21.03
2019-03-06T07:26:01.437Z,17.80
2019-03-06T07:28:52.534Z,19.13
2019-03-06T07:31:47.979Z,17.37
2019-03-06T07:34:36.294Z,19.00
2019-03-06T07:37:18.544Z,20.13
2019-03-06T07:40:12.083Z,19.70
2019-03-06T07:43:00.927Z,21.60
2019-03-06T07:45:58.972Z,18.73
2019-03-06T07:48:54.230Z,19.27
2019-03-06T07:51:44.252Z,23.93
2019-03-06T07:54:39.731Z,20.03
2019-03-06T07:57:38.602Z,19.53
2019-03-06T08:00:22.574Z,23.77
2019-03-06T08:03:20.445Z,22.33
2019-03-06T08:05:50.926Z,21.93
2019-03-06T08:08:21.710Z,15.00
2019-03-06T08:10:53.957Z,18.00
2019-03-06T08:13:35.465Z,17.60
2019-03-06T08:16:24.736Z,21.73
2019-03-06T08:19:27.625Z,20.33
2019-03-06T08:22:09.224Z,20.13
2019-03-06T08:25:04.787Z,17.27
2019-03-06T08:27:35.399Z,19.03
2019-03-06T08:30:08.987Z,18.63
2019-03-06T08:32:39.358Z,21.73
2019-03-06T08:35:10.969Z,17.70
2019-03-06T08:37:41.415Z,17.97
2019-03-06T08:40:12.928Z,17.93
2019-03-06T08:42:43.314Z,17.67
2019-03-06T08:45:15.862Z,20.00
2019-03-06T08:48:01.458Z,20.53
2019-03-06T08:50:40.718Z,28.97
2019-03-06T08:53:30.205Z,31.53
2019-03-06T08:56:07.928Z,143.63
2019-03-06T08:58:45.247Z,47.00
2019-03-06T09:01:45.507Z,33.67
2019-03-06T09:04:45.661Z,39.80
2019-03-06T09:07:39.371Z,33.87
2019-03-06T09:10:28.313Z,41.60
2019-03-06T09:13:04.937Z,46.27
2019-03-06T09:16:06.754Z,37.50
2019-03-06T09:18:54.741Z,45.63
2019-03-06T09:21:35.360Z,49.97
2019-03-06T09:24:27.390Z,46.00
2019-03-06T09:27:15.445Z,48.40
2019-03-06T09:30:15.958Z,64.73
2019-03-06T09:33:08.564Z,47.00
2019-03-06T09:35:47.963Z,47.70
2019-03-06T09:38:46.700Z,53.57
2019-03-06T09:41:26.876Z,53.17
2019-03-06T09:44:12.109Z,52.93
2019-03-06T09:46:59.979Z,53.83
2019-03-06T09:49:39.443Z,55.00
2019-03-06T09:52:20.875Z,53.57
2019-03-06T09:55:11.096Z,52.33
2019-03-06T09:57:48.777Z,57.37
2019-03-06T10:00:41.443Z,57.70
2019-03-06T10:03:49.089Z,57.17
2019-03-06T10:06:38.619Z,56.50
2019-03-06T10:09:25.108Z,56.17
2019-03-06T10:12:11.893Z,55.40
2019-03-06T10:15:00.409Z,61.43
2019-03-06T10:17:35.603Z,55.77
2019-03-06T10:20:09.651Z,57.87
2019-03-06T10:22:40.475Z,56.57
2019-03-06T10:25:11.212Z,49.57
2019-03-06T10:27:41.746Z,54.37
2019-03-06T10:30:14.213Z,50.33
2019-03-06T10:32:46.580Z,62.03
2019-03-06T10:35:17.828Z,59.23
2019-03-06T10:37:48.290Z,54.10
2019-03-06T10:40:18.805Z,52.37
2019-03-06T10:42:49.259Z,50.40
2019-03-06T10:45:20.277Z,47.60
2019-03-06T10:47:51.401Z,46.27
2019-03-06T10:50:26.682Z,53.27
2019-03-06T10:52:55.913Z,52.60
2019-03-06T10:55:26.797Z,64.30
2019-03-06T10:57:57.852Z,46.20
2019-03-06T11:00:33.347Z,49.27
2019-03-06T11:03:05.459Z,45.67
2019-03-06T11:05:36.257Z,52.93
2019-03-06T11:08:07.701Z,55.63
2019-03-06T11:10:49.885Z,53.80
2019-03-06T11:13:26.934Z,54.30
2019-03-06T11:15:57.435Z,66.33
2019-03-06T11:18:28.191Z,60.87
2019-03-06T11:20:58.620Z,65.33
2019-03-06T11:23:29.049Z,57.70
2019-03-06T11:25:59.407Z,59.20
2019-03-06T11:28:29.903Z,70.37
2019-03-06T11:31:01.555Z,54.43
2019-03-06T11:33:32.883Z,58.30
2019-03-06T11:36:03.837Z,58.10
2019-03-06T11:38:34.689Z,51.97
2019-03-06T11:41:06.342Z,178.87
2019-03-06T11:43:37.271Z,49.53
2019-03-06T11:46:09.187Z,46.00
2019-03-06T11:48:39.693Z,45.63
2019-03-06T11:51:10.241Z,45.27
2019-03-06T11:53:40.759Z,41.87
2019-03-06T11:56:11.199Z,58.03
2019-03-06T11:58:43.854Z,35.07
2019-03-06T12:01:18.979Z,37.40
2019-03-06T12:03:50.336Z,35.87
2019-03-06T12:06:20.873Z,32.60
2019-03-06T12:08:51.357Z,30.93
2019-03-06T12:11:21.769Z,30.37
2019-03-06T12:13:52.813Z,33.13
2019-03-06T12:16:23.497Z,37.93
2019-03-06T12:18:54.163Z,30.80
2019-03-06T12:21:25.856Z,27.47
2019-03-06T12:23:56.435Z,29.00
2019-03-06T12:26:27.217Z,27.67
2019-03-06T12:28:57.856Z,30.33
2019-03-06T12:31:28.393Z,40.27
2019-03-06T12:33:58.858Z,31.23
2019-03-06T12:36:29.392Z,26.73
2019-03-06T12:39:00.098Z,20.73
2019-03-06T12:41:31.003Z,23.57
2019-03-06T12:44:10.163Z,22.47
2019-03-06T12:46:33.990Z,17.67
2019-03-06T12:49:09.756Z,22.77
2019-03-06T12:51:40.236Z,17.20
2019-03-06T12:54:10.936Z,21.97
2019-03-06T12:56:41.351Z,18.97
2019-03-06T12:59:11.889Z,17.87
2019-03-06T13:01:42.582Z,19.77
2019-03-06T13:04:13.049Z,18.80
2019-03-06T13:06:44.969Z,22.23
2019-03-06T13:09:18.499Z,21.63
2019-03-06T13:11:49.410Z,20.87
2019-03-06T13:14:19.968Z,21.13
2019-03-06T13:16:50.648Z,17.50
2019-03-06T13:19:21.187Z,18.27
2019-03-06T13:21:52.456Z,16.97
2019-03-06T13:24:23.183Z,19.63
2019-03-06T13:26:53.613Z,18.43
2019-03-06T13:29:25.805Z,22.53
2019-03-06T13:31:56.399Z,40.10
2019-03-06T13:34:29.925Z,19.60
2019-03-06T13:37:00.487Z,20.57
2019-03-06T13:39:30.959Z,21.70
2019-03-06T13:42:01.465Z,24.57
2019-03-06T13:44:33.297Z,25.17
2019-03-06T13:47:03.974Z,22.43
2019-03-06T13:49:34.716Z,29.50
2019-03-06T13:52:05.609Z,22.43
2019-03-06T13:54:36.213Z,21.13
2019-03-06T13:57:08.639Z,22.80
2019-03-06T13:59:39.479Z,26.33
2019-03-06T14:02:10.029Z,24.83
2019-03-06T14:04:40.438Z,24.53
2019-03-06T14:07:11.403Z,25.13
2019-03-06T14:09:43.177Z,30.87
2019-03-06T14:12:14.031Z,19.70
2019-03-06T14:14:44.551Z,23.63
2019-03-06T14:17:15.769Z,28.80
2019-03-06T14:19:46.641Z,19.60
2019-03-06T14:22:18.916Z,20.97
2019-03-06T14:24:49.210Z,26.93
2019-03-06T14:27:19.575Z,16.97
2019-03-06T14:29:51.163Z,27.83
2019-03-06T14:32:22.204Z,17.33
2019-03-06T14:34:52.811Z,27.13
2019-03-06T14:37:23.287Z,25.97
2019-03-06T14:39:53.706Z,21.40
2019-03-06T14:42:24.359Z,24.30
2019-03-06T14:44:54.947Z,22.60
2019-03-06T14:47:25.661Z,27.50
2019-03-06T14:49:56.313Z,21.47
2019-03-06T14:52:26.843Z,23.83
2019-03-06T14:54:57.570Z,20.57
2019-03-06T14:57:28.406Z,23.17
2019-03-06T14:59:58.838Z,21.70
2019-03-06T15:02:29.274Z,15.20
2019-03-06T15:04:59.714Z,26.03
2019-03-06T15:07:30.471Z,22.93
2019-03-06T15:10:01.095Z,26.40
2019-03-06T15:12:33.249Z,26.37
2019-03-06T15:15:03.826Z,20.37
2019-03-06T15:17:34.282Z,31.20
2019-03-06T15:20:05.247Z,21.73
2019-03-06T15:22:38.494Z,24.60
2019-03-06T15:25:11.644Z,26.60
2019-03-06T15:27:42.524Z,23.83
2019-03-06T15:30:15.047Z,21.37
2019-03-06T15:32:45.788Z,23.97
2019-03-06T15:35:17.054Z,30.73
2019-03-06T15:37:48.031Z,21.77
2019-03-06T15:40:22.389Z,17.90
2019-03-06T15:42:53.254Z,19.23
2019-03-06T15:45:26.154Z,79.77
2019-03-06T15:47:56.866Z,23.90
2019-03-06T15:50:27.933Z,23.77
2019-03-06T15:52:58.414Z,28.13
2019-03-06T15:55:29.248Z,25.77
2019-03-06T15:57:59.773Z,22.23
2019-03-06T16:00:34.921Z,32.97
2019-03-06T16:03:06.759Z,30.20
2019-03-06T16:05:38.503Z,22.97
2019-03-06T16:08:09.531Z,23.57
2019-03-06T16:10:40.800Z,32.80
2019-03-06T16:13:11.822Z,24.40
2019-03-06T16:15:42.604Z,30.47
2019-03-06T16:18:13.268Z,25.43
2019-03-06T16:20:44.153Z,33.53
2019-03-06T16:23:15.862Z,25.70
2019-03-06T16:25:46.379Z,27.97
2019-03-06T16:28:17.193Z,27.43
2019-03-06T16:30:48.046Z,28.97
2019-03-06T16:33:21.228Z,27.80
2019-03-06T16:35:52.321Z,31.00
2019-03-06T16:38:23.101Z,27.63
2019-03-06T16:40:53.702Z,33.17
2019-03-06T16:43:24.769Z,22.13
2019-03-06T16:45:55.677Z,32.53
2019-03-06T16:48:26.120Z,27.53
2019-03-06T16:50:56.538Z,27.73
2019-03-06T16:53:27.234Z,24.97
2019-03-06T16:55:58.051Z,27.40
2019-03-06T16:58:28.537Z,26.03
2019-03-06T17:00:59.001Z,26.37
2019-03-06T17:03:29.393Z,27.53
2019-03-06T17:05:59.993Z,19.93
2019-03-06T17:08:30.588Z,25.07
2019-03-06T17:11:01.394Z,24.23
2019-03-06T17:13:32.019Z,24.07
2019-03-06T17:16:02.826Z,27.10
2019-03-06T17:18:33.212Z,27.43
2019-03-06T17:21:03.697Z,26.80
2019-03-06T17:23:35.319Z,22.73
2019-03-06T17:26:05.913Z,31.03
2019-03-06T17:28:36.730Z,32.97
2019-03-06T17:31:07.817Z,30.97
2019-03-06T17:33:38.177Z,35.23
2019-03-06T17:36:08.907Z,34.57
2019-03-06T17:38:39.797Z,37.90
2019-03-06T17:41:10.684Z,36.90
2019-03-06T17:43:41.094Z,46.43
2019-03-06T17:46:12.091Z,46.63
2019-03-06T17:48:42.627Z,53.27
2019-03-06T17:51:13.432Z,48.13
2019-03-06T17:53:44.326Z,46.47
2019-03-06T17:56:14.975Z,60.83
2019-03-06T17:58:45.661Z,53.47
2019-03-06T18:01:19.687Z,46.83
2019-03-06T18:03:56.333Z,51.13
2019-03-06T18:06:26.702Z,58.93
2019-03-06T18:08:57.515Z,58.83
2019-03-06T18:11:27.989Z,53.43
2019-03-06T18:13:58.846Z,54.67
2019-03-06T18:16:29.300Z,59.10
2019-03-06T18:19:00.465Z,46.77
2019-03-06T18:21:31.434Z,47.53
2019-03-06T18:24:01.869Z,50.00
2019-03-06T18:26:33.081Z,53.87
2019-03-06T18:29:03.715Z,45.20
2019-03-06T18:31:34.250Z,50.47
2019-03-06T18:34:05.074Z,51.00
2019-03-06T18:36:35.627Z,60.93
2019-03-06T18:39:17.388Z,53.90
2019-03-06T18:41:48.783Z,59.40
2019-03-06T18:44:19.268Z,52.17
2019-03-06T18:46:50.034Z,51.17
2019-03-06T18:49:20.640Z,56.50
2019-03-06T18:51:51.268Z,49.30
2019-03-06T18:54:21.701Z,63.87
2019-03-06T18:56:52.661Z,59.40
2019-03-06T18:59:23.274Z,53.77
2019-03-06T19:01:53.743Z,61.20
2019-03-06T19:04:24.236Z,84.30
2019-03-06T19:06:54.844Z,60.83
2019-03-06T19:09:25.820Z,60.50
2019-03-06T19:11:56.218Z,60.80
2019-03-06T19:14:26.707Z,60.67
2019-03-06T19:16:57.141Z,68.43
2019-03-06T19:19:28.097Z,63.70
2019-03-06T19:21:58.395Z,51.40
2019-03-06T19:24:28.872Z,47.53
2019-03-06T19:27:00.744Z,69.97
2019-03-06T19:29:31.583Z,60.97
2019-03-06T19:32:02.124Z,56.10
2019-03-06T19:34:32.824Z,65.93
2019-03-06T19:37:03.654Z,62.87
2019-03-06T19:39:34.694Z,77.13
2019-03-06T19:42:05.763Z,53.87
2019-03-06T19:44:36.614Z,70.00
2019-03-06T19:47:07.194Z,67.10
2019-03-06T19:49:37.945Z,77.83
2019-03-06T19:52:08.722Z,76.13
2019-03-06T19:54:39.400Z,56.70
2019-03-06T19:57:11.855Z,66.73
2019-03-06T19:59:42.224Z,61.63
2019-03-06T20:02:12.768Z,65.17
2019-03-06T20:04:43.580Z,52.60
2019-03-06T20:07:13.990Z,67.37
2019-03-06T20:09:44.759Z,70.47
2019-03-06T20:12:15.460Z,56.03
2019-03-06T20:14:45.816Z,63.53
2019-03-06T20:17:17.613Z,51.53
2019-03-06T20:19:49.280Z,63.70
2019-03-06T20:22:19.816Z,56.73
2019-03-06T20:24:50.228Z,60.33
2019-03-06T20:27:20.789Z,44.13
2019-03-06T20:29:51.753Z,55.33
2019-03-06T20:32:22.255Z,44.10
2019-03-06T20:34:52.859Z,44.17
2019-03-06T20:37:23.317Z,57.07
2019-03-06T20:39:54.002Z,42.10
2019-03-06T20:42:24.445Z,45.43
2019-03-06T20:44:55.720Z,49.17
2019-03-06T20:47:26.520Z,40.13
2019-03-06T20:49:56.900Z,47.87
2019-03-06T20:52:27.457Z,41.80
2019-03-06T20:54:57.962Z,40.07
2019-03-06T20:57:28.650Z,44.30
2019-03-06T20:59:59.012Z,39.70
2019-03-06T21:02:29.478Z,71.63
2019-03-06T21:05:00.322Z,55.57
2019-03-06T21:07:30.737Z,53.87
2019-03-06T21:10:01.120Z,49.23
2019-03-06T21:12:33.352Z,27.87
2019-03-06T21:15:03.775Z,46.50
2019-03-06T21:17:36.437Z,34.23
2019-03-06T21:20:09.730Z,51.60
2019-03-06T21:22:40.204Z,44.40
2019-03-06T21:25:12.037Z,46.30
2019-03-06T21:27:42.612Z,36.13
2019-03-06T21:30:20.553Z,45.17
2019-03-06T21:32:50.928Z,32.63
2019-03-06T21:35:21.626Z,46.53
2019-03-06T21:37:53.183Z,44.10
2019-03-06T21:40:24.256Z,38.77
2019-03-06T21:42:54.714Z,32.43
2019-03-06T21:45:25.109Z,29.30
2019-03-06T21:47:57.833Z,29.23
2019-03-06T21:50:28.409Z,29.00
2019-03-06T21:52:58.844Z,50.40
2019-03-06T21:55:29.946Z,43.80
2019-03-06T21:58:00.314Z,42.30
2019-03-06T22:00:30.740Z,27.70
2019-03-06T22:03:01.141Z,37.63
2019-03-06T22:05:32.064Z,37.17
2019-03-06T22:08:02.438Z,27.73
2019-03-06T22:10:32.988Z,47.97
2019-03-06T22:13:03.581Z,30.40
2019-03-06T22:15:34.024Z,26.03
2019-03-06T22:18:04.519Z,29.47
2019-03-06T22:20:34.978Z,38.63
2019-03-06T22:23:05.473Z,30.77
2019-03-06T22:25:35.916Z,48.40
2019-03-06T22:28:06.674Z,32.17
2019-03-06T22:30:37.114Z,40.30
2019-03-06T22:33:07.858Z,39.40
2019-03-06T22:35:38.268Z,31.13
2019-03-06T22:38:08.870Z,43.00
2019-03-06T22:40:39.853Z,48.07
2019-03-06T22:43:10.508Z,22.80
2019-03-06T22:45:40.943Z,33.80
2019-03-06T22:48:11.536Z,44.60
2019-03-06T22:50:41.904Z,40.00
2019-03-06T22:53:12.708Z,41.67
2019-03-06T22:55:43.160Z,40.00
2019-03-06T22:58:14.011Z,23.43
2019-03-06T23:00:52.858Z,30.10
2019-03-06T23:03:26.050Z,43.70
2019-03-06T23:05:56.461Z,31.30
2019-03-06T23:08:27.100Z,37.83
2019-03-06T23:10:57.846Z,46.80
2019-03-06T23:13:28.926Z,42.90
2019-03-06T23:15:59.688Z,33.37
2019-03-06T23:18:30.367Z,44.47
2019-03-06T23:21:00.808Z,50.40
2019-03-06T23:23:31.238Z,42.53
2019-03-06T23:26:01.698Z,39.03
2019-03-06T23:28:32.196Z,45.20
2019-03-06T23:31:02.775Z,49.87
2019-03-06T23:33:33.172Z,51.50
2019-03-06T23:36:03.731Z,45.57
2019-03-06T23:38:34.575Z,26.97
2019-03-06T23:41:05.306Z,39.80
2019-03-06T23:43:35.650Z,35.53
2019-03-06T23:46:06.374Z,42.83
2019-03-06T23:48:36.939Z,59.33
2019-03-06T23:51:29.668Z,36.63
2019-03-06T23:54:00.099Z,32.43
2019-03-06T23:56:30.666Z,39.23
2019-03-06T23:59:01.271Z,46.70
